Time;durP1;ratioP1;P1;durP2;ratioP2;P2;SDS_P1;SDS_P2;PMS_P1;PMS_P2;Temp;Humidity;BMP_temperature;BMP_pressure;BME280_temperature;BME280_humidity;BME280_pressure;Samples;Min_cycle;Max_cycle;Signal;HPM_P1;HPM_P2
2022/09/02 00:00:48;;;;;;;2.60;0.80;;;;;;;16.58;51.45;100405.19;5073496;28;20033;-77
2022/09/02 00:03:14;;;;;;;1.27;0.63;;;;;;;16.50;51.55;100398.78;5073525;28;20039;-78
2022/09/02 00:05:40;;;;;;;1.80;0.70;;;;;;;16.47;51.38;100390.47;5073329;28;20041;-78
2022/09/02 00:08:06;;;;;;;1.13;0.60;;;;;;;16.45;51.63;100395.53;5073556;28;20035;-78
2022/09/02 00:10:35;;;;;;;2.03;0.70;;;;;;;16.47;51.51;100387.72;5073100;28;20043;-79
2022/09/02 00:13:01;;;;;;;2.38;0.80;;;;;;;16.41;51.56;100386.44;5073391;28;20037;-78
2022/09/02 00:15:26;;;;;;;11.80;0.90;;;;;;;16.46;51.52;100384.19;5073265;28;20097;-78
2022/09/02 00:17:52;;;;;;;;;;;;;;;16.47;51.59;100387.72;5073934;28;20077;-78
2022/09/02 00:20:18;;;;;;;1.70;0.80;;;;;;;16.36;51.71;100378.50;5072832;28;19993;-80
2022/09/02 00:22:43;;;;;;;;;;;;;;;16.25;51.97;100372.81;5073396;28;20528;-79
2022/09/02 00:25:09;;;;;;;1.83;0.70;;;;;;;16.24;52.31;100379.47;5072737;28;19916;-78
2022/09/02 00:27:34;;;;;;;2.15;0.77;;;;;;;16.28;52.36;100380.31;5072911;28;20433;-78
2022/09/02 00:29:59;;;;;;;;;;;;;;;16.24;52.16;100373.97;5073213;28;20055;-79
2022/09/02 00:32:25;;;;;;;2.30;1.10;;;;;;;16.24;52.29;100371.25;5072849;28;19908;-79
2022/09/02 00:34:50;;;;;;;;;;;;;;;16.24;52.27;100380.28;5073255;28;20352;-79
2022/09/02 00:37:16;;;;;;;3.73;1.03;;;;;;;16.23;52.46;100370.44;5073282;28;19909;-79
2022/09/02 00:39:42;;;;;;;3.45;0.60;;;;;;;16.12;52.71;100368.66;5073146;28;20486;-80
2022/09/02 00:42:07;;;;;;;1.95;0.77;;;;;;;16.08;52.71;100365.06;5072963;28;20123;-81
2022/09/02 00:44:35;;;;;;;2.42;0.90;;;;;;;16.06;52.84;100367.38;5072792;28;20025;-79
2022/09/02 00:47:01;;;;;;;1.83;0.80;;;;;;;16.02;53.15;100364.59;5072914;28;20040;-79
2022/09/02 00:49:29;;;;;;;2.90;0.73;;;;;;;16.07;52.69;100366.22;5072911;28;20112;-79
2022/09/02 00:52:08;;;;;;;1.85;0.73;;;;;;;16.07;52.91;100366.22;5072758;28;20316;-79
2022/09/02 00:54:38;;;;;;;2.92;0.98;;;;;;;16.08;52.83;100365.06;5071480;28;20037;-80
2022/09/02 00:57:10;;;;;;;2.50;0.90;;;;;;;16.15;52.76;100362.47;5071472;28;20030;-80
2022/09/02 00:59:46;;;;;;;2.90;0.93;;;;;;;16.17;52.58;100357.38;5071362;28;20055;-79
2022/09/02 01:02:12;;;;;;;2.17;0.80;;;;;;;16.22;52.22;100354.31;5072686;28;20028;-79
2022/09/02 01:04:38;;;;;;;2.20;0.90;;;;;;;16.17;52.45;100360.13;5072591;28;20048;-80
2022/09/02 01:07:05;;;;;;;2.33;0.77;;;;;;;16.19;52.26;100358.59;5072658;28;20029;-80
2022/09/02 01:09:32;;;;;;;2.88;1.20;;;;;;;16.23;52.51;100355.91;5072188;28;20356;-80
2022/09/02 01:11:58;;;;;;;1.95;0.80;;;;;;;16.17;52.42;100351.91;5072421;28;20398;-80
2022/09/02 01:14:23;;;;;;;1.95;0.77;;;;;;;16.22;52.42;100357.06;5072597;28;20067;-80
2022/09/02 01:16:53;;;;;;;2.10;0.90;;;;;;;16.23;52.46;100353.16;5072241;28;20060;-80
2022/09/02 01:19:25;;;;;;;2.35;0.70;;;;;;;16.25;52.55;100348.88;5072767;28;20032;-79
2022/09/02 01:21:53;;;;;;;2.58;1.20;;;;;;;16.28;52.44;100358.34;5072202;28;20039;-80
2022/09/02 01:24:21;;;;;;;2.13;0.80;;;;;;;16.36;52.29;100353.78;5072153;28;20029;-79
2022/09/02 01:26:47;;;;;;;2.40;1.00;;;;;;;16.35;52.27;100346.69;5072372;28;20028;-79
2022/09/02 01:29:15;;;;;;;1.88;0.70;;;;;;;16.34;52.25;100342.38;5072417;28;20033;-80
2022/09/02 01:31:40;;;;;;;2.42;0.90;;;;;;;16.25;52.57;100353.59;5072124;28;20036;-80
2022/09/02 01:34:06;;;;;;;2.25;0.85;;;;;;;16.28;52.65;100350.09;5072340;28;20036;-80
2022/09/02 01:36:32;;;;;;;;;;;;;;;16.34;52.70;100340.41;5072505;28;20525;-80
2022/09/02 01:38:57;;;;;;;2.53;0.80;;;;;;;16.33;53.10;100344.31;5072362;28;20469;-79
2022/09/02 01:41:23;;;;;;;1.73;0.90;;;;;;;16.20;53.54;100340.16;5072374;28;20494;-79
2022/09/02 01:43:48;;;;;;;;;;;;;;;16.20;53.52;100346.44;5072550;28;20036;-79
2022/09/02 01:46:13;;;;;;;2.77;0.90;;;;;;;16.16;53.61;100336.56;5072207;28;19913;-79
2022/09/02 01:48:39;;;;;;;2.10;0.90;;;;;;;16.11;53.69;100331.38;5076149;28;20269;-79
2022/09/02 01:51:04;;;;;;;2.10;0.90;;;;;;;16.07;53.73;100333.25;5074794;28;20068;-79
2022/09/02 01:53:31;;;;;;;2.50;1.00;;;;;;;16.08;53.66;100340.34;5075818;28;20029;-79
2022/09/02 01:55:56;;;;;;;3.15;1.17;;;;;;;16.02;53.84;100333.59;5075955;28;20044;-79
2022/09/02 01:58:22;;;;;;;2.50;0.85;;;;;;;16.03;53.90;100329.66;5075983;28;20033;-79
2022/09/02 02:00:47;;;;;;;2.45;0.80;;;;;;;15.90;54.18;100327.09;5075933;28;20040;-80
2022/09/02 02:03:13;;;;;;;2.60;0.90;;;;;;;15.90;54.27;100326.31;5075602;28;20038;-79
2022/09/02 02:05:40;;;;;;;1.65;0.80;;;;;;;15.86;54.26;100329.00;5074224;28;20060;-79
2022/09/02 02:08:06;;;;;;;2.50;1.10;;;;;;;15.84;53.87;100320.34;5075704;28;20479;-79
2022/09/02 02:10:31;;;;;;;;;;;;;;;15.99;53.73;100328.81;5076027;28;20459;-79
2022/09/02 02:12:59;;;;;;;3.25;1.30;;;;;;;16.02;53.70;100333.59;5075384;28;19954;-79
2022/09/02 02:15:25;;;;;;;3.38;0.90;;;;;;;16.10;53.39;100329.78;5075644;28;20032;-79
2022/09/02 02:17:50;;;;;;;2.22;0.70;;;;;;;15.92;53.73;100329.47;5075502;28;20512;-79
2022/09/02 02:20:18;;;;;;;1.92;0.80;;;;;;;15.83;53.89;100335.22;5075589;28;20103;-80
2022/09/02 02:22:44;;;;;;;2.80;0.80;;;;;;;15.68;54.31;100325.13;5075519;28;20037;-79
2022/09/02 02:25:13;;;;;;;2.30;0.88;;;;;;;15.64;54.70;100329.75;5075320;28;20116;-79
2022/09/02 02:27:39;;;;;;;2.30;0.70;;;;;;;15.61;54.49;100330.47;5075132;28;20064;-80
2022/09/02 02:30:07;;;;;;;2.95;0.90;;;;;;;15.53;54.71;100326.78;5075088;28;20105;-79
2022/09/02 02:32:32;;;;;;;2.47;0.80;;;;;;;15.44;54.97;100330.88;5073918;28;20033;-79
2022/09/02 02:34:58;;;;;;;2.03;0.80;;;;;;;15.44;55.23;100325.41;5075076;28;20033;-79
2022/09/02 02:37:23;;;;;;;1.70;0.70;;;;;;;15.43;55.32;100327.34;5073799;28;20528;-80
2022/09/02 02:39:48;;;;;;;5.93;1.23;;;;;;;15.41;55.40;100320.63;5074938;28;20068;-80
2022/09/02 02:42:14;;;;;;;2.33;1.00;;;;;;;15.34;55.97;100326.78;5075234;28;20162;-79
2022/09/02 02:44:40;;;;;;;2.42;0.98;;;;;;;15.27;55.75;100324.69;5074960;28;20064;-79
2022/09/02 02:47:07;;;;;;;2.22;1.02;;;;;;;15.21;56.14;100326.13;5075329;28;20124;-79
2022/09/02 02:49:37;;;;;;;2.38;1.00;;;;;;;15.20;56.37;100323.75;5074965;28;20024;-79
2022/09/02 02:52:03;;;;;;;3.83;1.02;;;;;;;15.15;56.17;100324.06;5074558;28;20425;-80
2022/09/02 02:54:28;;;;;;;;;;;;;;;15.01;56.54;100325.34;5074002;28;20316;-79
2022/09/02 02:56:53;;;;;;;1.43;0.90;;;;;;;15.07;56.54;100327.78;5074525;28;19958;-79
2022/09/02 02:59:19;;;;;;;2.07;0.80;;;;;;;15.03;56.68;100325.75;5074140;28;20270;-79
2022/09/02 03:01:44;;;;;;;1.85;0.77;;;;;;;15.12;56.50;100314.59;5074502;28;20056;-79
2022/09/02 03:04:09;;;;;;;2.30;0.90;;;;;;;15.05;56.63;100322.66;5074417;28;20048;-80
2022/09/02 03:06:35;;;;;;;1.37;0.70;;;;;;;15.04;56.58;100315.59;5074550;28;20263;-79
2022/09/02 03:09:00;;;;;;;2.70;0.90;;;;;;;15.07;56.46;100316.81;5074504;28;20032;-80
2022/09/02 03:11:27;;;;;;;3.13;0.93;;;;;;;14.96;56.76;100317.41;5073317;28;20507;-79
2022/09/02 03:13:53;;;;;;;7.90;0.90;;;;;;;14.93;57.09;100317.28;5073142;28;20617;-79
2022/09/02 03:16:18;;;;;;;;;;;;;;;14.93;56.96;100311.81;5074599;28;20467;-79
2022/09/02 03:18:45;;;;;;;2.03;0.90;;;;;;;14.97;56.80;100313.50;5074334;28;19908;-79
2022/09/02 03:21:12;;;;;;;1.83;0.70;;;;;;;15.07;56.70;100314.88;5074060;28;20351;-79
2022/09/02 03:23:38;;;;;;;3.20;0.98;;;;;;;15.07;56.35;100314.88;5073155;28;20113;-80
2022/09/02 03:26:09;;;;;;;5.78;1.63;;;;;;;14.92;56.83;100310.22;5074179;28;20025;-81
2022/09/02 03:28:35;;;;;;;1.67;0.77;;;;;;;14.84;57.04;100319.47;5072882;28;20040;-79
2022/09/02 03:31:00;;;;;;;1.90;0.85;;;;;;;14.76;57.32;100315.75;5074126;28;20029;-79
2022/09/02 03:33:25;;;;;;;4.03;0.80;;;;;;;14.69;57.38;100316.41;5074191;28;20394;-79
2022/09/02 03:35:51;;;;;;;4.17;0.77;;;;;;;14.68;57.50;100312.06;5073919;28;20247;-79
2022/09/02 03:38:16;;;;;;;4.03;0.87;;;;;;;14.80;57.24;100310.38;5072488;28;20529;-79
2022/09/02 03:40:41;;;;;;;3.47;0.90;;;;;;;14.75;57.46;100312.22;5073662;28;20621;-79
2022/09/02 03:43:07;;;;;;;3.03;1.00;;;;;;;14.78;57.33;100307.16;5073949;28;20263;-80
2022/09/02 03:45:32;;;;;;;2.90;0.75;;;;;;;14.76;57.65;100307.53;5073826;28;20078;-80
2022/09/02 03:47:58;;;;;;;2.15;0.70;;;;;;;14.74;57.68;100310.63;5073833;28;20033;-79
2022/09/02 03:50:30;;;;;;;3.33;1.08;;;;;;;14.73;57.72;100306.31;5073422;28;20032;-79
2022/09/02 03:52:58;;;;;;;3.47;0.90;;;;;;;14.75;57.61;100304.00;5073984;28;20036;-80
2022/09/02 03:55:23;;;;;;;2.53;0.98;;;;;;;14.75;57.60;100304.00;5073384;28;20052;-80
2022/09/02 03:57:49;;;;;;;3.92;1.15;;;;;;;14.74;57.56;100307.91;5073387;28;20052;-80
2022/09/02 04:00:16;;;;;;;2.43;0.80;;;;;;;14.66;57.73;100303.41;5073640;28;20116;-80
2022/09/02 04:02:42;;;;;;;3.00;1.20;;;;;;;14.54;58.16;100300.78;5073240;28;20269;-80
2022/09/02 04:05:08;;;;;;;3.03;0.90;;;;;;;14.62;58.07;100296.28;5073424;28;20053;-79
2022/09/02 04:07:34;;;;;;;2.45;1.00;;;;;;;14.64;57.85;100293.97;5073192;28;20498;-80
2022/09/02 04:10:00;;;;;;;2.90;1.00;;;;;;;14.71;57.45;100297.66;5071307;28;20025;-80
2022/09/02 04:12:25;;;;;;;;;;;;;;;14.82;57.15;100305.31;5072437;28;20029;-80
2022/09/02 04:14:51;;;;;;;2.20;0.82;;;;;;;14.77;57.18;100292.66;5073072;28;19935;-80
2022/09/02 04:17:16;;;;;;;2.80;0.90;;;;;;;14.80;56.88;100300.19;5073075;28;20099;-79
2022/09/02 04:19:41;;;;;;;1.85;0.82;;;;;;;14.80;57.17;100297.47;5073059;28;20394;-79
2022/09/02 04:22:07;;;;;;;2.70;1.10;;;;;;;14.68;57.44;100298.38;5072878;28;20467;-80
2022/09/02 04:24:33;;;;;;;3.85;1.20;;;;;;;14.70;57.54;100296.06;5071539;28;20058;-79
2022/09/02 04:26:58;;;;;;;2.42;0.80;;;;;;;14.71;57.36;100294.91;5073226;28;20067;-79
2022/09/02 04:29:25;;;;;;;2.03;0.90;;;;;;;14.65;57.49;100292.81;5072722;28;20032;-79
2022/09/02 04:31:51;;;;;;;3.05;1.02;;;;;;;14.68;57.49;100289.34;5073058;28;20041;-80
2022/09/02 04:34:16;;;;;;;2.83;0.98;;;;;;;14.59;57.52;100291.50;5071469;28;20357;-79
2022/09/02 04:36:41;;;;;;;3.22;1.08;;;;;;;14.65;57.48;100292.81;5072805;28;20134;-80
2022/09/02 04:39:08;;;;;;;1.88;0.80;;;;;;;14.66;57.40;100292.47;5072814;28;20483;-79
2022/09/02 04:41:34;;;;;;;2.22;0.80;;;;;;;14.58;57.84;100290.69;5072408;28;20348;-78
2022/09/02 04:44:00;;;;;;;2.33;0.90;;;;;;;14.57;57.71;100289.09;5071305;28;20040;-76
2022/09/02 04:46:26;;;;;;;;;;;;;;;14.47;57.95;100295.16;5072686;28;20127;-76
2022/09/02 04:48:51;;;;;;;2.20;0.80;;;;;;;14.57;57.89;100288.31;5070773;28;20010;-76
2022/09/02 04:51:20;;;;;;;3.17;0.97;;;;;;;14.53;57.69;100288.25;5071847;28;20108;-74
2022/09/02 04:53:46;;;;;;;2.42;0.93;;;;;;;14.47;57.98;100294.38;5072405;28;20025;-75
2022/09/02 04:56:15;;;;;;;1.85;0.73;;;;;;;14.38;58.32;100289.03;5072422;28;20052;-75
2022/09/02 04:58:42;;;;;;;3.05;0.85;;;;;;;14.63;58.08;100297.88;5072286;28;20048;-75
2022/09/02 05:01:14;;;;;;;2.25;0.90;;;;;;;14.75;57.11;100298.50;5072015;28;20028;-75
2022/09/02 05:03:39;;;;;;;2.80;0.95;;;;;;;14.67;57.54;100296.00;5071775;28;20066;-76
2022/09/02 05:06:06;;;;;;;2.38;0.90;;;;;;;14.71;57.58;100292.16;5071957;28;20092;-75
2022/09/02 05:08:35;;;;;;;2.38;0.90;;;;;;;14.77;57.59;100291.88;5071839;28;20043;-76
2022/09/02 05:11:04;;;;;;;2.35;0.90;;;;;;;14.71;57.62;100289.44;5071889;28;20032;-75
2022/09/02 05:13:30;;;;;;;2.42;0.85;;;;;;;14.73;57.74;100291.81;5072094;28;20033;-75
2022/09/02 05:15:55;;;;;;;4.55;0.90;;;;;;;14.59;57.92;100295.03;5072618;28;20035;-74
2022/09/02 05:18:21;;;;;;;11.10;1.77;;;;;;;14.60;58.03;100296.59;5072065;28;20040;-76
2022/09/02 05:20:46;;;;;;;5.15;1.00;;;;;;;14.61;57.88;100298.22;5073176;28;20063;-76
2022/09/02 05:23:12;;;;;;;2.50;0.80;;;;;;;14.54;58.09;100295.31;5076206;28;20391;-76
2022/09/02 05:25:38;;;;;;;2.92;1.20;;;;;;;14.60;58.04;100302.09;5076494;28;20674;-75
2022/09/02 05:28:07;;;;;;;2.67;0.93;;;;;;;14.71;57.75;100310.56;5076385;28;20037;-75
2022/09/02 05:30:33;;;;;;;2.85;0.98;;;;;;;14.79;57.65;100301.34;5075709;28;20089;-75
2022/09/02 05:32:58;;;;;;;;;;;;;;;14.79;58.29;100306.03;5076605;28;20097;-74
2022/09/02 05:35:24;;;;;;;2.10;0.70;;;;;;;14.85;57.92;100304.59;5076014;28;19908;-75
2022/09/02 05:37:49;;;;;;;2.73;1.10;;;;;;;14.73;58.03;100303.56;5076793;28;20602;-75
2022/09/02 05:40:15;;;;;;;2.77;0.93;;;;;;;14.71;58.04;100297.66;5076296;28;20290;-76
2022/09/02 05:42:40;;;;;;;2.45;0.95;;;;;;;14.68;58.33;100298.38;5076043;28;20718;-75
2022/09/02 05:45:06;;;;;;;3.20;1.03;;;;;;;14.63;58.41;100295.91;5075992;28;20424;-75
2022/09/02 05:47:35;;;;;;;2.50;0.88;;;;;;;14.63;58.79;100297.88;5077236;28;20051;-84
2022/09/02 05:50:01;;;;;;;3.45;0.88;;;;;;;14.59;58.31;100297.75;5077277;28;20122;-85
2022/09/02 05:52:27;;;;;;;2.08;0.80;;;;;;;14.66;58.52;100303.41;5076528;28;20037;-83
2022/09/02 05:54:54;;;;;;;3.28;0.90;;;;;;;14.68;58.56;100295.63;5076918;28;20036;-82
2022/09/02 05:57:20;;;;;;;4.13;1.25;;;;;;;14.70;58.74;100290.59;5077037;28;20029;-82
2022/09/02 05:59:47;;;;;;;1.75;0.70;;;;;;;14.63;59.17;100293.19;5080289;28;20169;-84
2022/09/02 06:02:16;;;;;;;2.47;0.90;;;;;;;14.70;59.06;100287.84;5077751;28;20041;-81
2022/09/02 06:04:45;;;;;;;2.40;1.02;;;;;;;14.78;58.54;100290.72;5075610;28;20053;-81
2022/09/02 06:07:12;;;;;;;2.60;1.08;;;;;;;14.86;58.49;100290.53;5075813;28;20471;-82
2022/09/02 06:09:37;;;;;;;4.70;1.13;;;;;;;14.90;58.38;100293.34;5075446;28;20475;-82
2022/09/02 06:12:03;;;;;;;5.80;1.30;;;;;;;15.02;58.20;100294.00;5076655;28;20078;-84
2022/09/02 06:14:29;;;;;;;5.10;1.75;;;;;;;15.01;58.00;100302.59;5075730;28;20032;-83
2022/09/02 06:16:56;;;;;;;6.50;2.88;;;;;;;15.12;57.93;100303.63;5076084;28;20032;-82
2022/09/02 06:19:24;;;;;;;5.35;2.22;;;;;;;15.21;57.74;100295.97;5077472;28;20036;-82
2022/09/02 06:21:50;;;;;;;3.40;1.02;;;;;;;15.34;57.30;100291.91;5076029;28;20119;-83
2022/09/02 06:24:15;;;;;;;2.97;1.10;;;;;;;15.43;57.06;100288.13;5075655;28;20067;-83
2022/09/02 06:26:41;;;;;;;5.00;1.00;;;;;;;15.65;56.74;100295.66;5078186;28;20066;-81
2022/09/02 06:29:09;;;;;;;3.40;0.95;;;;;;;15.84;56.64;100295.63;5084693;28;20035;-82
2022/09/02 06:31:35;;;;;;;2.45;0.93;;;;;;;16.04;55.52;100295.56;5084325;28;20489;-81
2022/09/02 06:34:02;;;;;;;2.75;1.25;;;;;;;16.03;55.40;100285.72;5081912;28;20052;-81
2022/09/02 06:36:29;;;;;;;3.33;1.08;;;;;;;16.01;55.46;100294.34;5080430;28;20029;-81
2022/09/02 06:38:56;;;;;;;1.50;0.70;;;;;;;16.02;55.62;100284.16;5081601;28;20024;-81
2022/09/02 06:41:28;;;;;;;2.35;0.90;;;;;;;16.15;55.47;100288.28;5076560;28;20035;-82
2022/09/02 06:43:59;;;;;;;3.05;1.13;;;;;;;16.15;55.14;100288.28;5075759;28;20059;-79
2022/09/02 06:46:28;;;;;;;2.90;1.13;;;;;;;16.14;55.60;100289.44;5074842;28;20032;-81
2022/09/02 06:48:53;;;;;;;3.63;1.38;;;;;;;16.32;55.08;100287.00;5075631;28;20025;-81
2022/09/02 06:51:24;;;;;;;3.92;1.27;;;;;;;16.34;54.86;100282.69;5075828;28;20416;-81
2022/09/02 06:53:50;;;;;;;2.83;1.10;;;;;;;16.34;55.11;100284.66;5075073;28;20075;-82
2022/09/02 06:56:15;;;;;;;3.38;1.23;;;;;;;16.30;55.08;100283.81;5075027;28;20527;-83
2022/09/02 06:58:41;;;;;;;3.00;1.10;;;;;;;16.31;55.15;100290.91;5075770;28;20067;-83
2022/09/02 07:01:06;;;;;;;3.90;1.60;;;;;;;16.23;55.25;100287.22;5073976;28;20794;-81
2022/09/02 07:06:17;;;;;;;3.17;1.08;;;;;;;16.32;54.93;100287.00;5074535;28;20783;-82
2022/09/02 07:08:43;;;;;;;2.60;0.95;;;;;;;16.33;54.93;100283.88;5074530;28;20033;-82
2022/09/02 07:11:17;;;;;;;3.15;1.27;;;;;;;16.44;54.72;100286.75;5073478;28;20442;-82
2022/09/02 07:13:42;;;;;;;3.13;1.02;;;;;;;16.71;54.18;100284.84;5077210;28;20501;-81
2022/09/02 07:16:08;;;;;;;4.27;1.03;;;;;;;16.73;53.67;100285.25;5074940;28;20064;-81
2022/09/02 07:18:34;;;;;;;;;;;;;;;16.71;53.74;100284.84;5075753;28;20057;-81
2022/09/02 07:21:00;;;;;;;2.40;0.90;;;;;;;16.66;53.98;100287.88;5075443;28;19912;-82
2022/09/02 07:23:25;;;;;;;;;;;;;;;16.54;54.27;100278.69;5075244;28;20544;-81
2022/09/02 07:25:50;;;;;;;2.23;1.00;;;;;;;16.52;54.77;100283.75;5073483;28;20010;-81
2022/09/02 07:28:16;;;;;;;2.70;1.00;;;;;;;16.45;55.01;100275.41;5074503;28;20729;-83
2022/09/02 07:30:43;;;;;;;2.83;0.98;;;;;;;16.51;55.17;100284.94;5075257;28;20471;-82
2022/09/02 07:33:12;;;;;;;3.85;1.17;;;;;;;16.58;54.76;100280.69;5074665;28;20033;-83
2022/09/02 07:35:42;;;;;;;2.92;1.00;;;;;;;16.59;55.08;100280.31;5075493;28;20032;-83
2022/09/02 07:38:09;;;;;;;3.28;1.30;;;;;;;16.55;55.11;100283.00;5075503;28;20024;-83
2022/09/02 07:40:35;;;;;;;3.17;1.30;;;;;;;16.77;54.56;100278.63;5075649;28;20080;-83
2022/09/02 07:43:01;;;;;;;;;;;;;;;17.06;54.16;100276.25;5075552;28;20029;-83
2022/09/02 07:45:26;;;;;;;2.92;1.13;;;;;;;17.10;54.19;100277.88;5074552;28;19912;-83
2022/09/02 07:47:52;;;;;;;7.43;2.35;;;;;;;17.22;53.79;100270.53;5075353;28;20043;-83
2022/09/02 07:50:18;;;;;;;6.40;1.70;;;;;;;17.31;53.74;100271.84;5073543;28;20032;-84
2022/09/02 07:52:43;;;;;;;15.57;3.45;;;;;;;17.38;53.62;100276.63;5074807;28;20024;-83
2022/09/02 07:55:09;;;;;;;;;;;;;;;17.34;54.04;100264.78;5074958;28;20037;-83
2022/09/02 07:57:34;;;;;;;5.10;1.17;;;;;;;17.42;54.25;100266.44;5076301;28;20373;-83
2022/09/02 07:59:59;;;;;;;4.38;1.15;;;;;;;17.45;54.20;100265.69;5074059;28;20463;-82
2022/09/02 08:02:24;;;;;;;;;;;;;;;17.58;53.72;100266.22;5074345;28;20170;-82
2022/09/02 08:04:50;;;;;;;4.13;1.87;;;;;;;17.73;53.41;100266.00;5073900;28;20373;-83
2022/09/02 08:07:17;;;;;;;;;;;;;;;18.09;52.90;100258.03;5073709;28;20463;-83
2022/09/02 08:09:43;;;;;;;2.45;0.93;;;;;;;18.54;51.60;100258.75;5073076;28;19923;-81
2022/09/02 08:12:08;;;;;;;;;;;;;;;18.81;50.84;100260.13;5074137;28;20076;-81
2022/09/02 08:14:33;;;;;;;1.90;0.93;;;;;;;18.82;51.12;100267.22;5073409;28;20002;-82
2022/09/02 08:16:59;;;;;;;;;;;;;;;18.68;51.42;100267.16;5074441;28;20261;-80
2022/09/02 08:19:25;;;;;;;4.53;1.15;;;;;;;18.65;51.51;100269.88;5073901;28;19912;-82
2022/09/02 08:21:50;;;;;;;;;;;;;;;18.64;51.77;100263.56;5074595;28;20039;-80
2022/09/02 08:24:16;;;;;;;4.45;1.35;;;;;;;18.62;51.97;100263.91;5074104;28;19908;-82
2022/09/02 08:26:41;;;;;;;;;;;;;;;18.96;51.25;100262.94;5074083;28;20033;-81
2022/09/02 08:29:07;;;;;;;3.63;1.25;;;;;;;19.12;51.35;100266.16;5072218;28;20003;-81
2022/09/02 08:31:35;;;;;;;2.65;1.02;;;;;;;19.37;50.49;100267.03;5073715;28;20033;-82
2022/09/02 08:34:00;;;;;;;2.20;0.80;;;;;;;19.63;49.66;100262.38;5072800;28;20504;-84
2022/09/02 08:36:26;;;;;;;;;;;;;;;19.55;49.97;100269.88;5073549;28;20123;-81
2022/09/02 08:38:54;;;;;;;2.33;0.90;;;;;;;19.53;49.67;100258.41;5073605;28;19931;-82
2022/09/02 08:41:20;;;;;;;7.07;1.35;;;;;;;19.60;49.82;100266.72;5073468;28;20533;-81
2022/09/02 08:43:45;;;;;;;;;;;;;;;19.83;49.71;100266.38;5073922;28;20025;-80
2022/09/02 08:46:15;;;;;;;3.63;1.45;;;;;;;20.06;49.25;100263.19;5073682;28;19954;-82
2022/09/02 08:48:46;;;;;;;4.60;1.58;;;;;;;20.27;49.40;100257.66;5072471;28;20033;-81
2022/09/02 08:51:24;;;;;;;2.58;1.10;;;;;;;20.40;48.60;100252.50;5074465;28;20028;-82
2022/09/02 08:54:01;;;;;;;2.40;1.00;;;;;;;20.28;48.81;100247.38;5075987;28;20036;-82
2022/09/02 08:56:27;;;;;;;3.20;1.25;;;;;;;20.30;49.27;100247.75;5078588;28;20032;-82
2022/09/02 08:58:55;;;;;;;5.93;1.30;;;;;;;20.14;48.99;100259.22;5077531;28;20494;-82
2022/09/02 09:01:47;;;;;;;3.65;1.17;;;;;;;20.37;48.84;100247.78;5076205;28;20024;-81
2022/09/02 09:04:50;;;;;;;2.95;1.00;;;;;;;20.48;48.24;100245.78;5074318;28;20383;-81
2022/09/02 09:07:43;;;;;;;2.35;1.08;;;;;;;20.66;47.97;100245.78;5072421;28;20075;-76
2022/09/02 09:10:31;;;;;;;4.53;1.30;;;;;;;20.76;47.80;100238.59;5072343;28;20090;-76
2022/09/02 09:13:17;;;;;;;3.67;1.08;;;;;;;20.85;47.33;100239.78;5071324;28;20414;-76
2022/09/02 09:15:50;;;;;;;9.15;1.45;;;;;;;21.04;46.91;100232.97;5072846;28;20441;-77
2022/09/02 09:18:19;;;;;;;3.08;1.27;;;;;;;21.09;46.65;100237.28;5072785;28;20028;-77
2022/09/02 09:20:45;;;;;;;3.97;1.10;;;;;;;21.23;46.04;100229.69;5072675;28;20488;-77
2022/09/02 09:23:33;;;;;;;4.43;1.20;;;;;;;21.36;45.88;100232.03;5072641;28;20115;-76
2022/09/02 09:26:11;;;;;;;2.90;0.95;;;;;;;21.57;45.47;100232.69;5072287;28;20471;-75
2022/09/02 09:28:42;;;;;;;4.72;1.75;;;;;;;21.83;44.52;100220.19;5072024;28;20033;-75
2022/09/02 09:31:23;;;;;;;2.92;1.00;;;;;;;21.84;43.43;100221.81;5072604;28;20078;-76
2022/09/02 09:34:02;;;;;;;2.90;1.20;;;;;;;21.75;43.46;100209.59;5072667;28;20375;-76
2022/09/02 09:36:40;;;;;;;3.10;1.15;;;;;;;21.79;43.40;100213.91;5072646;28;20040;-76
2022/09/02 09:39:26;;;;;;;2.95;0.98;;;;;;;21.93;43.25;100205.47;5071172;28;20033;-76
2022/09/02 09:41:54;;;;;;;2.70;1.10;;;;;;;22.12;43.66;100195.81;5072411;28;20024;-77
2022/09/02 09:44:38;;;;;;;2.67;1.00;;;;;;;22.28;43.27;100197.25;5072354;28;20036;-76
2022/09/02 09:47:07;;;;;;;1.58;0.73;;;;;;;22.37;42.79;100200.34;5072814;28;20064;-76
2022/09/02 09:49:33;;;;;;;3.80;0.90;;;;;;;22.60;41.66;100192.13;5072309;28;20368;-76
2022/09/02 09:51:59;;;;;;;3.47;1.23;;;;;;;22.55;41.13;100194.59;5071787;28;20603;-76
2022/09/02 09:54:26;;;;;;;4.70;1.52;;;;;;;22.61;41.82;100188.16;5071075;28;20037;-76
2022/09/02 09:56:52;;;;;;;4.07;1.58;;;;;;;22.69;41.83;100186.09;5072193;28;20028;-77
2022/09/02 09:59:46;;;;;;;6.53;1.33;;;;;;;22.77;42.04;100185.56;5071940;28;20033;-76
2022/09/02 10:02:23;;;;;;;2.03;0.88;;;;;;;22.92;40.62;100180.66;5072174;28;20035;-76
2022/09/02 10:04:50;;;;;;;5.32;1.90;;;;;;;23.11;41.00;100176.44;5071972;28;20460;-76
2022/09/02 10:07:35;;;;;;;2.60;0.90;;;;;;;23.19;40.31;100183.47;5071875;28;20048;-75
2022/09/02 10:10:24;;;;;;;2.45;1.00;;;;;;;23.09;40.41;100168.53;5075564;28;20072;-76
2022/09/02 10:12:52;;;;;;;1.77;0.80;;;;;;;23.14;39.32;100181.16;5075293;28;20064;-75
2022/09/02 10:15:34;;;;;;;3.15;1.02;;;;;;;23.29;40.38;100176.19;5075094;28;20417;-76
2022/09/02 10:18:13;;;;;;;3.78;1.00;;;;;;;23.19;39.37;100166.81;5075621;28;20036;-76
2022/09/02 10:20:49;;;;;;;2.50;1.00;;;;;;;22.76;39.02;100178.47;5074079;28;20387;-75
2022/09/02 10:23:27;;;;;;;2.38;1.05;;;;;;;22.66;39.23;100184.13;5075382;28;20490;-76
2022/09/02 10:26:20;;;;;;;2.78;1.00;;;;;;;22.77;39.51;100179.25;5075287;28;20047;-76
2022/09/02 10:29:28;;;;;;;4.10;1.05;;;;;;;22.78;40.06;100178.03;5075143;28;20033;-76
2022/09/02 10:32:02;;;;;;;2.33;0.90;;;;;;;22.87;39.90;100178.34;5064593;28;20056;-76
2022/09/02 10:34:51;;;;;;;2.50;0.90;;;;;;;22.80;39.66;100178.41;5074990;28;20032;-77
2022/09/02 10:37:18;;;;;;;2.88;0.98;;;;;;;22.72;39.67;100166.63;5075136;28;20050;-77
2022/09/02 10:40:07;;;;;;;2.58;1.02;;;;;;;22.65;40.42;100165.91;5074099;28;20036;-77
2022/09/02 10:42:44;;;;;;;2.33;0.80;;;;;;;22.49;39.89;100163.72;5075318;28;20021;-77
2022/09/02 10:45:42;;;;;;;2.00;0.80;;;;;;;22.36;39.41;100152.41;5075287;28;20032;-77
2022/09/02 10:48:29;;;;;;;2.58;1.15;;;;;;;22.56;39.46;100157.31;5075047;28;20100;-74
2022/09/02 10:51:03;;;;;;;1.95;0.85;;;;;;;22.61;39.83;100154.84;5074910;28;20043;-76
2022/09/02 10:54:23;;;;;;;2.33;1.10;;;;;;;22.56;39.71;100160.09;5075160;28;20097;-76
2022/09/02 10:57:00;;;;;;;1.92;0.88;;;;;;;22.44;39.38;100164.19;5052560;28;20434;-76
2022/09/02 10:59:42;;;;;;;2.03;0.85;;;;;;;22.58;39.59;100160.47;5072121;28;20051;-76
2022/09/02 11:02:19;;;;;;;1.67;0.80;;;;;;;22.58;39.08;100157.69;5075071;28;20035;-76
2022/09/02 11:04:55;;;;;;;2.33;1.15;;;;;;;22.77;36.89;100157.03;5074681;28;20101;-76
2022/09/02 11:07:27;;;;;;;3.55;1.20;;;;;;;22.85;35.01;100153.00;5074880;28;20533;-76
2022/09/02 11:09:57;;;;;;;1.92;0.80;;;;;;;22.73;34.58;100153.53;5074039;28;20102;-76
2022/09/02 11:12:31;;;;;;;2.33;1.00;;;;;;;22.82;34.61;100151.03;5074408;28;20120;-75
2022/09/02 11:15:11;;;;;;;2.08;0.82;;;;;;;22.62;35.56;100150.88;5073852;28;20032;-76
2022/09/02 11:17:39;;;;;;;3.80;1.40;;;;;;;22.69;34.83;100148.03;5073786;28;20115;-76
2022/09/02 11:20:26;;;;;;;2.13;1.00;;;;;;;22.72;34.50;100149.19;5073626;28;20444;-76
2022/09/02 11:23:02;;;;;;;2.55;1.08;;;;;;;22.86;34.75;100151.03;5073934;28;20031;-76
2022/09/02 11:25:54;;;;;;;1.92;0.80;;;;;;;22.98;33.73;100151.22;5074120;28;20028;-76
2022/09/02 11:28:37;;;;;;;2.10;0.90;;;;;;;22.98;33.53;100140.13;5072770;28;20451;-75
2022/09/02 11:31:20;;;;;;;1.83;0.80;;;;;;;23.16;33.46;100141.84;5074156;28;20071;-75
2022/09/02 11:34:14;;;;;;;2.10;0.95;;;;;;;23.34;33.03;100134.81;5073954;28;20390;-75
2022/09/02 11:36:40;;;;;;;1.98;1.00;;;;;;;23.17;32.48;100137.84;5073690;28;20474;-75
2022/09/02 11:39:41;;;;;;;2.28;1.00;;;;;;;23.20;33.22;100132.28;5073771;28;20032;-76
2022/09/02 11:42:19;;;;;;;2.78;1.08;;;;;;;23.23;33.15;100136.19;5034298;28;20415;-75
2022/09/02 11:45:13;;;;;;;2.70;1.15;;;;;;;23.18;33.10;100133.88;5070709;28;20040;-75